createdAt,value
2023-05-24T00:01:38.670Z,102359.56
2023-05-24T00:04:06.678Z,102349.75
2023-05-24T00:06:37.090Z,102356.31
2023-05-24T00:09:06.293Z,102357.66
2023-05-24T00:11:34.199Z,102359.84
2023-05-24T00:14:02.004Z,102355.72
2023-05-24T00:16:29.854Z,102357.06
2023-05-24T00:18:59.190Z,102354.31
2023-05-24T00:21:26.966Z,102360.59
2023-05-24T00:23:54.800Z,102353.63
2023-05-24T00:26:24.088Z,102358.31
2023-05-24T00:28:56.819Z,102349.06
2023-05-24T00:31:24.707Z,102348.38
2023-05-24T00:33:52.932Z,102334.91
2023-05-24T00:36:20.924Z,102335.63
2023-05-24T00:38:49.033Z,102343.16
2023-05-24T00:41:18.101Z,102345.88
2023-05-24T00:43:47.579Z,102343.06
2023-05-24T00:46:18.987Z,102344.84
2023-05-24T00:48:47.582Z,102351.69
2023-05-24T00:51:16.012Z,102339.31
2023-05-24T00:53:46.781Z,102336.81
2023-05-24T00:56:15.597Z,102341.53
2023-05-24T00:58:44.265Z,102344.94
2023-05-24T01:01:14.465Z,102336.41
2023-05-24T01:03:43.367Z,102340.06
2023-05-24T01:06:16.112Z,102339.63
2023-05-24T01:08:53.624Z,102342.16
2023-05-24T01:11:30.354Z,102342.25
2023-05-24T01:14:14.456Z,102347.47
2023-05-24T01:16:51.742Z,102341.44
2023-05-24T01:19:44.906Z,102345.06
2023-05-24T01:22:24.469Z,102345.41
2023-05-24T01:25:03.720Z,102337.22
2023-05-24T01:27:35.548Z,102337.97
2023-05-24T01:30:04.705Z,102335.47
2023-05-24T01:32:32.968Z,102330.47
2023-05-24T01:35:00.806Z,102325.72
2023-05-24T01:37:28.619Z,102333.06
2023-05-24T01:39:56.640Z,102327.91
2023-05-24T01:42:27.413Z,102330.63
2023-05-24T01:45:05.724Z,102322.34
2023-05-24T01:47:46.450Z,102318.88
2023-05-24T01:50:21.667Z,102329.88
2023-05-24T01:52:53.073Z,102334.41
2023-05-24T01:55:23.259Z,102327.34
2023-05-24T01:57:52.499Z,102329.91
2023-05-24T02:00:23.096Z,102320.03
2023-05-24T02:02:55.087Z,102322.03
2023-05-24T02:05:23.324Z,102319.47
2023-05-24T02:07:51.462Z,102317.91
2023-05-24T02:10:19.340Z,102311.69
2023-05-24T02:12:47.524Z,102312.38
2023-05-24T02:15:15.463Z,102310.97
2023-05-24T02:17:46.033Z,102309.97
2023-05-24T02:20:14.726Z,102309.97
2023-05-24T02:22:42.561Z,102313.75
2023-05-24T02:25:11.152Z,102312.06
2023-05-24T02:27:39.432Z,102315.44
2023-05-24T02:30:08.867Z,102315.34
2023-05-24T02:32:37.067Z,102317.34
2023-05-24T02:35:07.696Z,102325.50
2023-05-24T02:37:36.631Z,102339.03
2023-05-24T02:40:05.318Z,102347.25
2023-05-24T02:42:33.737Z,102350.81
2023-05-24T02:45:01.579Z,102355.53
2023-05-24T02:47:29.596Z,102357.53
2023-05-24T02:49:57.634Z,102352.94
2023-05-24T02:52:27.187Z,102358.44
2023-05-24T02:54:55.080Z,102361.81
2023-05-24T02:57:22.998Z,102372.31
2023-05-24T02:59:51.615Z,102367.09
2023-05-24T03:02:19.562Z,102368.13
2023-05-24T03:04:47.445Z,102371.00
2023-05-24T03:07:15.411Z,102385.94
2023-05-24T03:09:45.521Z,102389.66
2023-05-24T03:12:14.081Z,102387.97
2023-05-24T03:14:41.876Z,102394.25
2023-05-24T03:17:09.706Z,102396.69
2023-05-24T03:19:37.531Z,102411.09
2023-05-24T03:22:05.626Z,102410.03
2023-05-24T03:24:34.436Z,102425.31
2023-05-24T03:27:03.777Z,102425.34
2023-05-24T03:29:31.703Z,102439.91
2023-05-24T03:32:01.511Z,102450.38
2023-05-24T03:34:30.264Z,102455.88
2023-05-24T03:36:58.355Z,102462.91
2023-05-24T03:39:26.369Z,102472.59
2023-05-24T03:42:11.188Z,102484.22
2023-05-24T03:44:40.071Z,102488.66
2023-05-24T03:47:08.236Z,102485.03
2023-05-24T03:49:36.197Z,102488.84
2023-05-24T03:52:04.009Z,102492.03
2023-05-24T03:54:31.844Z,102494.78
2023-05-24T03:56:59.822Z,102495.66
2023-05-24T03:59:30.779Z,102497.47
2023-05-24T04:01:58.579Z,102504.75
2023-05-24T04:04:26.588Z,102508.16
2023-05-24T04:06:56.172Z,102509.22
2023-05-24T04:09:24.704Z,102517.28
2023-05-24T04:11:52.807Z,102519.06
2023-05-24T04:14:20.612Z,102528.66
2023-05-24T04:16:49.941Z,102535.06
2023-05-24T04:19:20.310Z,102534.94
2023-05-24T04:21:48.453Z,102531.16
2023-05-24T04:24:16.425Z,102532.97
2023-05-24T04:26:47.651Z,102533.84
2023-05-24T04:29:16.121Z,102539.06
2023-05-24T04:31:44.937Z,102538.97
2023-05-24T04:34:14.697Z,102545.31
2023-05-24T04:36:43.011Z,102547.88
2023-05-24T04:39:12.638Z,102559.50
2023-05-24T04:41:40.648Z,102564.75
2023-05-24T04:44:08.609Z,102566.47
2023-05-24T04:46:36.984Z,102567.22
2023-05-24T04:49:05.776Z,102588.28
2023-05-24T04:51:38.481Z,102589.88
2023-05-24T04:54:09.115Z,102584.69
2023-05-24T04:56:38.514Z,102591.44
2023-05-24T04:59:06.849Z,102598.56
2023-05-24T05:01:38.020Z,102607.34
2023-05-24T05:04:06.112Z,102612.28
2023-05-24T05:06:38.967Z,102616.69
2023-05-24T05:09:09.440Z,102607.66
2023-05-24T05:11:37.249Z,102622.59
2023-05-24T05:14:05.086Z,102617.16
2023-05-24T05:16:33.423Z,102600.81
2023-05-24T05:19:01.524Z,102584.38
2023-05-24T05:21:29.365Z,102584.09
2023-05-24T05:23:58.571Z,102572.25
2023-05-24T05:26:27.061Z,102570.28
2023-05-24T05:28:55.731Z,102560.88
2023-05-24T05:31:23.906Z,102545.53
2023-05-24T05:33:51.715Z,102527.28
2023-05-24T05:36:20.033Z,102530.63
2023-05-24T05:38:48.235Z,102513.41
2023-05-24T05:41:17.343Z,102504.22
2023-05-24T05:43:45.159Z,102493.38
2023-05-24T05:46:15.834Z,102477.31
2023-05-24T05:48:45.677Z,102484.03
2023-05-24T05:51:14.277Z,102478.38
2023-05-24T05:53:42.111Z,102477.41
2023-05-24T05:56:10.070Z,102476.31
2023-05-24T05:58:39.444Z,102467.31
2023-05-24T06:01:07.210Z,102474.06
2023-05-24T06:03:35.098Z,102474.44
2023-05-24T06:06:03.054Z,102486.47
2023-05-24T06:08:34.925Z,102494.56
2023-05-24T06:11:03.113Z,102496.38
2023-05-24T06:13:31.361Z,102509.66
2023-05-24T06:16:01.354Z,102515.00
2023-05-24T06:18:30.486Z,102518.63
2023-05-24T06:20:58.554Z,102524.00
2023-05-24T06:23:26.803Z,102519.16
2023-05-24T06:25:54.642Z,102506.28
2023-05-24T06:28:22.746Z,102510.97
2023-05-24T06:30:50.929Z,102507.03
2023-05-24T06:33:20.871Z,102502.22
2023-05-24T06:35:48.926Z,102489.34
2023-05-24T06:38:18.052Z,102485.91
2023-05-24T06:40:45.847Z,102483.88
2023-05-24T06:43:13.674Z,102491.75
2023-05-24T06:45:41.963Z,102476.38
2023-05-24T06:48:09.917Z,102457.91
2023-05-24T06:50:42.360Z,102434.72
2023-05-24T06:53:10.956Z,102429.81
2023-05-24T06:55:38.772Z,102415.16
2023-05-24T06:58:07.914Z,102399.72
2023-05-24T07:00:35.748Z,102392.81
2023-05-24T07:03:05.390Z,102376.00
2023-05-24T07:05:33.210Z,102377.19
2023-05-24T07:08:02.509Z,102375.41
2023-05-24T07:10:30.264Z,102377.53
2023-05-24T07:12:58.088Z,102367.50
2023-05-24T07:15:26.182Z,102378.00
2023-05-24T07:17:54.499Z,102370.59
2023-05-24T07:20:22.983Z,102371.69
2023-05-24T07:22:51.986Z,102377.53
2023-05-24T07:25:22.184Z,102371.78
2023-05-24T07:27:51.006Z,102371.69
2023-05-24T07:30:31.030Z,102374.56
2023-05-24T07:33:00.490Z,102360.47
2023-05-24T07:35:29.375Z,102366.22
2023-05-24T07:37:57.689Z,102364.88
2023-05-24T07:40:27.628Z,102360.94
2023-05-24T07:42:55.477Z,102346.53
2023-05-24T07:45:23.678Z,102340.22
2023-05-24T07:47:52.362Z,102331.53
2023-05-24T07:50:22.525Z,102319.94
2023-05-24T07:52:51.283Z,102309.72
2023-05-24T07:55:19.226Z,102311.69
2023-05-24T07:57:48.601Z,102309.09
2023-05-24T08:00:17.524Z,102308.91
2023-05-24T08:02:46.808Z,102307.88
2023-05-24T08:05:15.502Z,102306.66
2023-05-24T08:07:43.329Z,102315.50
2023-05-24T08:10:12.544Z,102311.44
2023-05-24T08:12:40.709Z,102319.22
2023-05-24T08:15:10.811Z,102310.28
2023-05-24T08:17:39.299Z,102308.91
2023-05-24T08:20:09.759Z,102305.81
2023-05-24T08:22:38.283Z,102306.41
2023-05-24T08:25:07.202Z,102291.16
2023-05-24T08:27:35.068Z,102285.41
2023-05-24T08:30:04.249Z,102288.03
2023-05-24T08:32:33.781Z,102292.25
2023-05-24T08:35:18.608Z,102295.84
2023-05-24T08:37:49.267Z,102283.91
2023-05-24T08:40:17.972Z,102271.03
2023-05-24T08:42:46.784Z,102261.06
2023-05-24T08:45:16.468Z,102271.56
2023-05-24T08:47:46.726Z,102260.84
2023-05-24T08:50:14.887Z,102254.25
2023-05-24T08:52:45.088Z,102261.56
2023-05-24T08:55:13.104Z,102248.91
2023-05-24T08:57:41.912Z,102248.38
2023-05-24T09:00:12.752Z,102248.31
2023-05-24T09:02:42.739Z,102244.13
2023-05-24T09:05:14.431Z,102241.78
2023-05-24T09:07:44.144Z,102245.75
2023-05-24T09:10:12.730Z,102237.38
2023-05-24T09:12:44.891Z,102247.53
2023-05-24T09:15:13.146Z,102255.34
2023-05-24T09:17:41.624Z,102259.44
2023-05-24T09:20:11.796Z,102264.94
2023-05-24T09:22:43.932Z,102279.38
2023-05-24T09:25:14.851Z,102276.22
2023-05-24T09:27:47.494Z,102276.00
2023-05-24T09:30:17.164Z,102277.25
2023-05-24T09:32:56.370Z,102276.38
2023-05-24T09:35:24.381Z,102275.94
2023-05-24T09:37:55.409Z,102280.06
2023-05-24T09:40:23.419Z,102277.41
2023-05-24T09:43:04.045Z,102260.47
2023-05-24T09:45:32.452Z,102245.88
2023-05-24T09:48:00.852Z,102235.41
2023-05-24T09:50:29.011Z,102243.84
2023-05-24T09:52:58.193Z,102237.47
2023-05-24T09:55:28.509Z,102230.84
2023-05-24T09:58:04.686Z,102220.69
2023-05-24T10:00:36.765Z,102220.69
2023-05-24T10:03:07.314Z,102211.47
2023-05-24T10:05:36.478Z,102221.06
2023-05-24T10:08:06.230Z,102230.63
2023-05-24T10:10:34.927Z,102227.50
2023-05-24T10:13:03.507Z,102233.28
2023-05-24T10:15:31.752Z,102239.34
2023-05-24T10:18:00.031Z,102247.63
2023-05-24T10:20:28.376Z,102237.91
2023-05-24T10:23:00.907Z,102234.63
2023-05-24T10:25:32.172Z,102246.59
2023-05-24T10:28:03.598Z,102232.97
2023-05-24T10:30:37.606Z,102228.88
2023-05-24T10:33:09.523Z,102226.41
2023-05-24T10:35:38.398Z,102219.00
2023-05-24T10:38:08.461Z,102214.34
2023-05-24T10:40:42.812Z,102213.56
2023-05-24T10:43:11.690Z,102212.69
2023-05-24T10:45:40.997Z,102210.84
2023-05-24T10:48:36.185Z,102199.31
2023-05-24T10:51:32.775Z,102206.88
2023-05-24T10:54:13.578Z,102208.03
2023-05-24T10:56:47.158Z,102206.59
2023-05-24T10:59:29.080Z,102208.84
2023-05-24T11:01:59.090Z,102215.09
2023-05-24T11:04:27.405Z,102218.03
2023-05-24T11:07:01.781Z,102217.81
2023-05-24T11:09:29.891Z,102214.75
2023-05-24T11:12:04.527Z,102217.00
2023-05-24T11:14:33.229Z,102227.63
2023-05-24T11:17:02.020Z,102229.13
2023-05-24T11:19:35.371Z,102237.91
2023-05-24T11:22:05.388Z,102237.81
2023-05-24T11:24:34.340Z,102248.69
2023-05-24T11:27:03.887Z,102243.00
2023-05-24T11:29:31.849Z,102245.22
2023-05-24T11:32:04.593Z,102242.72
2023-05-24T11:34:34.231Z,102238.75
2023-05-24T11:37:03.462Z,102236.41
2023-05-24T11:39:32.928Z,102236.97
2023-05-24T11:42:01.493Z,102228.97
2023-05-24T11:44:33.524Z,102232.03
2023-05-24T11:47:01.684Z,102238.81
2023-05-24T11:49:30.012Z,102239.19
2023-05-24T11:51:59.272Z,102239.94
2023-05-24T11:54:28.574Z,102232.00
2023-05-24T11:56:56.762Z,102233.19
2023-05-24T11:59:26.434Z,102229.75
2023-05-24T12:02:02.654Z,102231.19
2023-05-24T12:04:31.363Z,102226.66
2023-05-24T12:06:59.618Z,102216.94
2023-05-24T12:09:28.728Z,102214.47
2023-05-24T12:11:58.206Z,102218.97
2023-05-24T12:14:31.085Z,102217.03
2023-05-24T12:16:59.953Z,102209.34
2023-05-24T12:19:35.141Z,102217.38
2023-05-24T12:22:07.463Z,102222.22
2023-05-24T12:24:36.263Z,102214.72
2023-05-24T12:27:10.925Z,102223.97
2023-05-24T12:29:41.567Z,102213.41
2023-05-24T12:32:14.615Z,102215.78
2023-05-24T12:34:46.058Z,102216.56
2023-05-24T12:37:17.843Z,102203.78
2023-05-24T12:39:48.535Z,102211.69
2023-05-24T12:42:17.180Z,102211.25
2023-05-24T12:44:45.846Z,102203.78
2023-05-24T12:47:14.373Z,102196.06
2023-05-24T12:49:43.449Z,102188.41
2023-05-24T12:52:13.448Z,102188.16
2023-05-24T12:54:42.048Z,102188.00
2023-05-24T12:57:10.195Z,102196.41
2023-05-24T12:59:38.434Z,102196.75
2023-05-24T13:02:08.888Z,102197.28
2023-05-24T13:04:39.979Z,102202.38
2023-05-24T13:07:08.394Z,102202.91
2023-05-24T13:09:37.958Z,102192.75
2023-05-24T13:12:07.094Z,102191.06
2023-05-24T13:14:36.103Z,102185.91
2023-05-24T13:17:04.452Z,102192.91
2023-05-24T13:19:33.072Z,102202.19
2023-05-24T13:22:01.194Z,102200.22
2023-05-24T13:24:29.670Z,102203.28
2023-05-24T13:26:59.494Z,102194.75
2023-05-24T13:29:39.404Z,102204.41
2023-05-24T13:32:14.216Z,102196.34
2023-05-24T13:34:43.415Z,102195.91
2023-05-24T13:37:12.067Z,102188.53
2023-05-24T13:39:40.828Z,102180.28
2023-05-24T13:42:11.246Z,102175.72
2023-05-24T13:44:40.163Z,102178.69
2023-05-24T13:47:09.700Z,102180.78
2023-05-24T13:49:40.274Z,102180.09
2023-05-24T13:52:08.488Z,102181.31
2023-05-24T13:54:36.737Z,102183.16
2023-05-24T13:57:06.762Z,102181.22
2023-05-24T13:59:36.480Z,102174.22
2023-05-24T14:02:04.804Z,102181.53
2023-05-24T14:04:33.199Z,102182.56
2023-05-24T14:07:01.477Z,102173.16
2023-05-24T14:09:29.813Z,102183.72
2023-05-24T14:11:58.126Z,102190.97
2023-05-24T14:16:59.257Z,102195.84
2023-05-24T14:19:28.392Z,102181.47
2023-05-24T14:21:56.540Z,102180.13
2023-05-24T14:24:25.247Z,102185.19
2023-05-24T14:26:53.590Z,102201.16
2023-05-24T14:29:22.027Z,102185.56
2023-05-24T14:31:50.836Z,102193.97
2023-05-24T14:34:20.679Z,102185.63
2023-05-24T14:36:48.752Z,102195.38
2023-05-24T14:39:17.400Z,102201.88
2023-05-24T14:41:45.985Z,102190.47
2023-05-24T14:44:14.087Z,102197.28
2023-05-24T14:46:42.819Z,102194.94
2023-05-24T14:49:11.065Z,102196.88
2023-05-24T14:51:40.969Z,102199.72
2023-05-24T14:54:12.132Z,102206.03
2023-05-24T14:56:42.715Z,102202.78
2023-05-24T14:59:11.360Z,102209.16
2023-05-24T15:01:40.680Z,102203.78
2023-05-24T15:04:11.514Z,102208.91
2023-05-24T15:06:41.382Z,102213.88
2023-05-24T15:09:09.704Z,102206.22
2023-05-24T15:11:37.997Z,102211.66
2023-05-24T15:14:06.337Z,102215.91
2023-05-24T15:16:34.789Z,102218.53
2023-05-24T15:19:02.924Z,102213.44
2023-05-24T15:21:31.377Z,102205.94
2023-05-24T15:24:01.197Z,102208.56
2023-05-24T15:26:30.284Z,102202.66
2023-05-24T15:29:01.218Z,102201.53
2023-05-24T15:31:29.353Z,102215.13
2023-05-24T15:33:57.273Z,102200.41
2023-05-24T15:36:25.434Z,102202.75
2023-05-24T15:38:53.606Z,102206.44
2023-05-24T15:41:23.200Z,102200.72
2023-05-24T15:43:52.141Z,102206.50
2023-05-24T15:46:22.539Z,102209.56
2023-05-24T15:48:50.551Z,102210.81
2023-05-24T15:53:49.145Z,102203.97
2023-05-24T15:56:17.022Z,102197.13
2023-05-24T15:58:47.049Z,102197.03
2023-05-24T16:01:15.062Z,102198.34
2023-05-24T16:03:46.495Z,102197.84
2023-05-24T16:06:15.696Z,102190.91
2023-05-24T16:08:44.252Z,102189.16
2023-05-24T16:11:13.589Z,102187.69
2023-05-24T16:13:41.637Z,102185.38
2023-05-24T16:16:10.846Z,102193.09
2023-05-24T16:18:39.046Z,102192.41
2023-05-24T16:21:06.764Z,102191.16
2023-05-24T16:23:34.619Z,102186.09
2023-05-24T16:26:02.406Z,102195.13
2023-05-24T16:28:30.162Z,102186.78
2023-05-24T16:30:58.882Z,102188.44
2023-05-24T16:33:28.146Z,102181.34
2023-05-24T16:36:02.864Z,102181.69
2023-05-24T16:38:31.243Z,102187.91
2023-05-24T16:40:58.944Z,102187.81
2023-05-24T16:43:45.614Z,102194.50
2023-05-24T16:46:13.495Z,102200.00
2023-05-24T16:48:42.891Z,102197.41
2023-05-24T16:51:10.702Z,102190.38
2023-05-24T16:53:38.797Z,102190.47
2023-05-24T16:56:06.989Z,102189.41
2023-05-24T16:58:34.787Z,102194.69
2023-05-24T17:01:02.553Z,102197.41
2023-05-24T17:03:32.817Z,102196.69
2023-05-24T17:06:05.012Z,102186.78
2023-05-24T17:08:34.514Z,102188.34
2023-05-24T17:11:02.620Z,102190.28
2023-05-24T17:13:30.811Z,102187.41
2023-05-24T17:16:00.050Z,102185.56
2023-05-24T17:18:31.116Z,102182.59
2023-05-24T17:21:00.384Z,102189.41
2023-05-24T17:23:31.849Z,102186.69
2023-05-24T17:26:01.013Z,102192.91
2023-05-24T17:28:29.449Z,102187.00
2023-05-24T17:30:58.859Z,102184.28
2023-05-24T17:33:28.331Z,102184.28
2023-05-24T17:35:57.734Z,102189.41
2023-05-24T17:38:26.228Z,102193.00
2023-05-24T17:40:59.716Z,102191.66
2023-05-24T17:43:31.746Z,102197.25
2023-05-24T17:46:03.806Z,102210.38
2023-05-24T17:48:32.721Z,102202.72
2023-05-24T17:51:01.884Z,102208.00
2023-05-24T17:53:32.104Z,102210.88
2023-05-24T17:56:02.450Z,102211.31
2023-05-24T17:58:35.712Z,102212.31
2023-05-24T18:01:05.253Z,102208.00
2023-05-24T18:03:33.659Z,102218.91
2023-05-24T18:06:03.938Z,102220.94
2023-05-24T18:08:31.964Z,102211.59
2023-05-24T18:11:03.616Z,102216.31
2023-05-24T18:13:31.576Z,102217.88
2023-05-24T18:15:59.737Z,102219.66
2023-05-24T18:18:29.587Z,102224.91
2023-05-24T18:20:57.451Z,102224.09
2023-05-24T18:23:25.947Z,102215.97
2023-05-24T18:26:00.894Z,102229.00
2023-05-24T18:28:32.735Z,102225.78
2023-05-24T18:31:00.905Z,102228.41
2023-05-24T18:33:28.757Z,102224.19
2023-05-24T18:35:56.916Z,102226.28
2023-05-24T18:38:24.825Z,102227.91
2023-05-24T18:40:52.966Z,102225.63
2023-05-24T18:43:20.733Z,102227.56
2023-05-24T18:45:49.987Z,102226.66
2023-05-24T18:48:17.750Z,102226.75
2023-05-24T18:50:45.899Z,102239.47
2023-05-24T18:53:13.979Z,102240.75
2023-05-24T18:55:41.878Z,102246.03
2023-05-24T18:58:10.080Z,102248.88
2023-05-24T19:00:37.853Z,102250.81
2023-05-24T19:03:10.834Z,102246.50
2023-05-24T19:05:40.644Z,102247.47
2023-05-24T19:08:10.603Z,102250.19
2023-05-24T19:10:38.420Z,102262.16
2023-05-24T19:13:07.212Z,102260.41
2023-05-24T19:15:36.564Z,102269.69
2023-05-24T19:18:04.577Z,102275.25
2023-05-24T19:20:34.357Z,102276.47
2023-05-24T19:23:02.300Z,102279.44
2023-05-24T19:25:31.177Z,102285.97
2023-05-24T19:28:00.497Z,102290.03
2023-05-24T19:30:29.196Z,102285.63
2023-05-24T19:32:57.061Z,102289.34
2023-05-24T19:35:24.949Z,102294.31
2023-05-24T19:37:54.139Z,102290.81
2023-05-24T19:40:22.026Z,102288.19
2023-05-24T19:42:50.317Z,102297.50
2023-05-24T19:45:18.173Z,102295.03
2023-05-24T19:47:46.541Z,102294.28
2023-05-24T19:50:14.343Z,102305.69
2023-05-24T19:52:42.146Z,102307.59
2023-05-24T19:55:11.715Z,102310.38
2023-05-24T19:57:39.483Z,102314.44
2023-05-24T20:00:09.378Z,102316.53
2023-05-24T20:02:40.526Z,102315.03
2023-05-24T20:05:09.198Z,102319.97
2023-05-24T20:07:37.212Z,102319.38
2023-05-24T20:10:05.917Z,102327.50
2023-05-24T20:12:35.351Z,102329.41
2023-05-24T20:15:03.347Z,102336.72
2023-05-24T20:17:31.402Z,102335.13
2023-05-24T20:19:59.443Z,102333.28
2023-05-24T20:22:27.242Z,102339.06
2023-05-24T20:24:55.172Z,102343.44
2023-05-24T20:27:22.991Z,102347.75
2023-05-24T20:29:52.274Z,102346.94
2023-05-24T20:32:20.291Z,102353.38
2023-05-24T20:34:48.067Z,102351.56
2023-05-24T20:37:16.004Z,102354.94
2023-05-24T20:39:45.055Z,102352.34
2023-05-24T20:42:12.948Z,102356.16
2023-05-24T20:44:40.753Z,102352.72
2023-05-24T20:47:10.188Z,102358.41
2023-05-24T20:49:38.035Z,102357.31
2023-05-24T20:52:06.254Z,102362.34
2023-05-24T20:54:34.185Z,102366.31
2023-05-24T20:57:02.786Z,102367.25
2023-05-24T20:59:30.845Z,102368.34
2023-05-24T21:01:58.590Z,102367.72
2023-05-24T21:04:27.887Z,102375.00
2023-05-24T21:06:56.247Z,102377.81
2023-05-24T21:09:24.040Z,102379.72
2023-05-24T21:11:51.887Z,102386.53
2023-05-24T21:14:19.778Z,102381.88
2023-05-24T21:16:47.652Z,102398.38
2023-05-24T21:19:15.573Z,102395.34
2023-05-24T21:21:44.796Z,102395.34
2023-05-24T21:24:12.579Z,102393.25
2023-05-24T21:26:40.485Z,102389.16
2023-05-24T21:29:08.410Z,102392.66
2023-05-24T21:31:36.263Z,102393.63
2023-05-24T21:34:04.302Z,102390.84
2023-05-24T21:36:32.461Z,102395.63
2023-05-24T21:39:07.394Z,102397.56
2023-05-24T21:41:35.642Z,102400.06
2023-05-24T21:44:03.952Z,102409.09
2023-05-24T21:46:33.566Z,102403.69
2023-05-24T21:49:01.457Z,102406.59
2023-05-24T21:51:29.488Z,102419.16
2023-05-24T21:53:57.439Z,102417.59
2023-05-24T21:56:27.063Z,102411.78
2023-05-24T21:58:54.915Z,102418.09
2023-05-24T22:01:22.742Z,102429.81
2023-05-24T22:03:50.705Z,102428.22
2023-05-24T22:06:18.555Z,102424.78
2023-05-24T22:08:46.609Z,102420.44
2023-05-24T22:11:14.768Z,102424.31
2023-05-24T22:13:44.040Z,102428.81
2023-05-24T22:16:11.850Z,102433.38
2023-05-24T22:18:40.037Z,102436.44
2023-05-24T22:21:07.851Z,102438.31
2023-05-24T22:23:35.776Z,102443.28
2023-05-24T22:26:03.619Z,102443.22
2023-05-24T22:28:49.505Z,102439.53
2023-05-24T22:31:19.824Z,102445.16
2023-05-24T22:33:47.913Z,102448.69
2023-05-24T22:36:16.085Z,102446.16
2023-05-24T22:38:45.192Z,102441.97
2023-05-24T22:41:13.049Z,102438.34
2023-05-24T22:44:12.681Z,102450.97
2023-05-24T22:46:41.899Z,102451.13
2023-05-24T22:49:13.056Z,102452.28
2023-05-24T22:51:44.416Z,102459.56
2023-05-24T22:54:12.921Z,102454.91
2023-05-24T22:56:40.733Z,102458.66
2023-05-24T22:59:08.801Z,102464.75
2023-05-24T23:01:36.611Z,102472.09
2023-05-24T23:04:19.677Z,102472.31
2023-05-24T23:06:48.800Z,102467.81
2023-05-24T23:09:17.536Z,102476.94
2023-05-24T23:11:46.058Z,102483.84
2023-05-24T23:14:14.114Z,102485.75
2023-05-24T23:16:45.693Z,102482.19
2023-05-24T23:19:18.318Z,102489.38
2023-05-24T23:21:47.257Z,102492.16
2023-05-24T23:24:15.659Z,102498.31
2023-05-24T23:26:43.823Z,102510.88
2023-05-24T23:29:11.750Z,102515.56
2023-05-24T23:31:39.822Z,102531.75
2023-05-24T23:34:08.432Z,102528.25
2023-05-24T23:36:37.798Z,102540.97
2023-05-24T23:39:06.104Z,102544.84
2023-05-24T23:41:33.989Z,102551.28
2023-05-24T23:44:01.725Z,102550.13
2023-05-24T23:46:29.514Z,102557.25
2023-05-24T23:48:57.333Z,102559.97
2023-05-24T23:51:25.329Z,102566.28
2023-05-24T23:53:54.966Z,102570.81
2023-05-24T23:56:23.210Z,102568.09
2023-05-24T23:58:50.992Z,102577.09
